createdAt,value
2018-06-27T00:00:36.172Z,15.37
2018-06-27T00:03:05.389Z,15.45
2018-06-27T00:05:34.651Z,15.48
2018-06-27T00:08:03.841Z,15.31
2018-06-27T00:10:33.054Z,15.33
2018-06-27T00:13:02.254Z,14.99
2018-06-27T00:15:31.412Z,15.12
2018-06-27T00:18:00.585Z,15.13
2018-06-27T00:20:29.800Z,15.37
2018-06-27T00:22:59.008Z,15.18
2018-06-27T00:25:28.189Z,14.67
2018-06-27T00:27:57.398Z,15.01
2018-06-27T00:30:26.573Z,15.07
2018-06-27T00:32:55.781Z,15.21
2018-06-27T00:35:25.134Z,15.02
2018-06-27T00:37:54.326Z,15.00
2018-06-27T00:40:23.510Z,15.07
2018-06-27T00:42:52.727Z,14.90
2018-06-27T00:45:21.894Z,14.98
2018-06-27T00:47:51.106Z,14.88
2018-06-27T00:50:20.342Z,14.62
2018-06-27T00:52:49.528Z,14.92
2018-06-27T00:55:18.754Z,15.00
2018-06-27T00:57:47.966Z,14.87
2018-06-27T01:00:17.200Z,14.54
2018-06-27T01:02:46.426Z,14.62
2018-06-27T01:05:15.606Z,14.69
2018-06-27T01:07:44.789Z,14.95
2018-06-27T01:10:14.019Z,15.03
2018-06-27T01:12:43.193Z,14.66
2018-06-27T01:15:12.393Z,14.78
2018-06-27T01:17:41.593Z,14.58
2018-06-27T01:20:10.788Z,14.62
2018-06-27T01:22:40.007Z,15.00
2018-06-27T01:25:09.178Z,14.85
2018-06-27T01:27:38.447Z,14.24
2018-06-27T01:30:07.627Z,14.83
2018-06-27T01:32:36.851Z,14.51
2018-06-27T01:35:06.033Z,14.33
2018-06-27T01:37:35.297Z,14.40
2018-06-27T01:40:04.526Z,14.72
2018-06-27T01:42:33.729Z,14.41
2018-06-27T01:45:02.992Z,14.30
2018-06-27T01:47:32.280Z,14.19
2018-06-27T01:50:01.468Z,14.12
2018-06-27T01:52:30.701Z,14.16
2018-06-27T01:54:59.877Z,14.43
2018-06-27T01:57:29.121Z,14.52
2018-06-27T01:59:58.353Z,14.42
2018-06-27T02:02:27.546Z,14.06
2018-06-27T02:04:56.700Z,14.44
2018-06-27T02:07:25.881Z,14.39
2018-06-27T02:09:55.101Z,14.48
2018-06-27T02:12:24.272Z,14.54
2018-06-27T02:14:53.488Z,14.35
2018-06-27T02:17:22.675Z,14.13
2018-06-27T02:19:51.872Z,14.04
2018-06-27T02:22:21.080Z,14.39
2018-06-27T02:24:50.296Z,14.15
2018-06-27T02:27:19.590Z,14.36
2018-06-27T02:29:48.779Z,14.56
2018-06-27T02:32:18.015Z,14.54
2018-06-27T02:34:47.192Z,14.29
2018-06-27T02:37:16.418Z,14.21
2018-06-27T02:39:45.622Z,14.20
2018-06-27T02:42:14.818Z,14.13
2018-06-27T02:44:44.040Z,14.25
2018-06-27T02:47:13.238Z,14.34
2018-06-27T02:49:42.448Z,14.29
2018-06-27T02:52:11.746Z,14.35
2018-06-27T02:54:40.948Z,14.18
2018-06-27T02:57:10.125Z,14.38
2018-06-27T02:59:39.331Z,14.00
2018-06-27T03:02:08.530Z,14.29
2018-06-27T03:04:37.749Z,14.08
2018-06-27T03:07:07.051Z,14.08
2018-06-27T03:09:36.253Z,14.43
2018-06-27T03:12:05.526Z,14.21
2018-06-27T03:14:34.694Z,14.29
2018-06-27T03:17:03.917Z,14.21
2018-06-27T03:19:33.162Z,14.08
2018-06-27T03:22:02.366Z,14.15
2018-06-27T03:24:31.573Z,14.53
2018-06-27T03:27:00.827Z,14.41
2018-06-27T03:29:30.055Z,14.34
2018-06-27T03:31:59.271Z,14.52
2018-06-27T03:34:28.449Z,14.22
2018-06-27T03:36:57.651Z,14.41
2018-06-27T03:39:26.869Z,14.27
2018-06-27T03:41:56.084Z,14.45
2018-06-27T03:44:25.266Z,14.28
2018-06-27T03:46:54.516Z,14.20
2018-06-27T03:49:23.720Z,14.47
2018-06-27T03:51:52.932Z,14.21
2018-06-27T03:54:22.182Z,14.66
2018-06-27T03:56:51.396Z,14.64
2018-06-27T03:59:20.605Z,14.81
2018-06-27T04:01:49.798Z,15.09
2018-06-27T04:04:19.008Z,15.10
2018-06-27T04:06:48.394Z,15.12
2018-06-27T04:09:17.581Z,15.05
2018-06-27T04:11:46.776Z,14.81
2018-06-27T04:14:15.967Z,14.93
2018-06-27T04:16:45.153Z,14.71
2018-06-27T04:19:14.362Z,14.95
2018-06-27T04:21:43.540Z,15.09
2018-06-27T04:24:12.755Z,15.36
2018-06-27T04:26:42.137Z,15.27
2018-06-27T04:29:11.353Z,15.43
2018-06-27T04:31:40.621Z,15.86
2018-06-27T04:34:09.814Z,16.01
2018-06-27T04:36:39.009Z,15.73
2018-06-27T04:39:09.694Z,16.33
2018-06-27T04:41:39.287Z,15.93
2018-06-27T04:44:08.547Z,16.11
2018-06-27T04:46:37.924Z,16.52
2018-06-27T04:49:07.150Z,16.48
2018-06-27T04:51:36.316Z,17.52
2018-06-27T04:54:05.536Z,17.05
2018-06-27T04:56:34.750Z,17.87
2018-06-27T04:59:03.980Z,18.05
2018-06-27T05:01:33.186Z,17.84
2018-06-27T05:04:02.381Z,17.97
2018-06-27T05:06:31.601Z,18.49
2018-06-27T05:09:00.792Z,18.58
2018-06-27T05:11:30.034Z,19.32
2018-06-27T05:13:59.284Z,18.93
2018-06-27T05:16:28.473Z,19.74
2018-06-27T05:18:57.635Z,19.97
2018-06-27T05:21:26.863Z,20.89
2018-06-27T05:23:56.079Z,21.73
2018-06-27T05:26:25.353Z,22.38
2018-06-27T05:28:54.545Z,22.74
2018-06-27T05:31:23.724Z,23.60
2018-06-27T05:33:53.133Z,24.05
2018-06-27T05:36:22.308Z,26.20
2018-06-27T05:38:51.657Z,27.66
2018-06-27T05:41:20.908Z,27.48
2018-06-27T05:43:50.051Z,28.38
2018-06-27T05:46:19.262Z,29.66
2018-06-27T05:48:48.525Z,28.50
2018-06-27T05:51:17.708Z,27.73
2018-06-27T05:53:46.926Z,27.07
2018-06-27T05:56:16.136Z,29.84
2018-06-27T05:58:45.372Z,30.55
2018-06-27T06:01:14.567Z,31.09
2018-06-27T06:03:44.066Z,31.23
2018-06-27T06:06:13.304Z,32.36
2018-06-27T06:08:42.517Z,31.24
2018-06-27T06:11:11.716Z,31.98
2018-06-27T06:13:40.874Z,30.53
2018-06-27T06:16:10.029Z,30.19
2018-06-27T06:18:39.228Z,30.21
2018-06-27T06:21:08.450Z,31.82
2018-06-27T06:23:37.659Z,31.75
2018-06-27T06:26:06.923Z,30.30
2018-06-27T06:28:36.278Z,29.97
2018-06-27T06:31:05.498Z,31.45
2018-06-27T06:33:34.705Z,34.47
2018-06-27T06:36:03.917Z,34.34
2018-06-27T06:38:33.124Z,32.40
2018-06-27T06:41:02.325Z,32.01
2018-06-27T06:43:31.564Z,32.34
2018-06-27T06:46:00.890Z,32.57
2018-06-27T06:48:31.051Z,31.94
2018-06-27T06:51:00.319Z,32.56
2018-06-27T06:53:29.621Z,33.57
2018-06-27T06:55:58.810Z,33.76
2018-06-27T06:58:28.170Z,33.94
2018-06-27T07:00:57.417Z,33.26
2018-06-27T07:03:26.600Z,30.98
2018-06-27T07:05:55.781Z,32.59
2018-06-27T07:08:24.965Z,33.89
2018-06-27T07:10:54.237Z,34.96
2018-06-27T07:13:23.437Z,34.81
2018-06-27T07:15:52.829Z,34.81
2018-06-27T07:18:22.052Z,34.51
2018-06-27T07:20:51.244Z,35.54
2018-06-27T07:23:20.446Z,33.85
2018-06-27T07:25:49.646Z,33.62
2018-06-27T07:28:18.898Z,33.94
2018-06-27T07:30:48.102Z,34.68
2018-06-27T07:33:17.294Z,34.93
2018-06-27T07:35:46.482Z,33.43
2018-06-27T07:38:15.667Z,33.71
2018-06-27T07:40:44.867Z,34.86
2018-06-27T07:43:14.057Z,34.40
2018-06-27T07:45:43.354Z,36.90
2018-06-27T07:48:12.601Z,37.00
2018-06-27T07:50:41.803Z,35.98
2018-06-27T07:53:11.644Z,34.94
2018-06-27T07:55:40.875Z,34.89
2018-06-27T07:58:10.054Z,35.45
2018-06-27T08:00:39.235Z,33.94
2018-06-27T08:03:08.433Z,35.97
2018-06-27T08:05:37.626Z,35.34
2018-06-27T08:08:06.871Z,35.90
2018-06-27T08:10:36.117Z,37.40
2018-06-27T08:13:05.308Z,34.30
2018-06-27T08:15:34.488Z,34.01
2018-06-27T08:18:03.876Z,33.00
2018-06-27T08:20:32.882Z,34.67
2018-06-27T08:23:02.099Z,33.47
2018-06-27T08:25:31.290Z,32.37
2018-06-27T08:28:00.494Z,32.93
2018-06-27T08:30:29.657Z,34.74
2018-06-27T08:32:59.067Z,33.87
2018-06-27T08:35:28.241Z,34.60
2018-06-27T08:37:57.438Z,34.57
2018-06-27T08:40:26.622Z,34.34
2018-06-27T08:42:55.823Z,35.19
2018-06-27T08:45:25.022Z,33.93
2018-06-27T08:47:54.403Z,35.87
2018-06-27T08:50:23.592Z,34.97
2018-06-27T08:52:52.773Z,35.48
2018-06-27T08:55:22.095Z,34.69
2018-06-27T08:57:51.299Z,34.01
2018-06-27T09:00:20.678Z,33.31
2018-06-27T09:02:49.899Z,35.25
2018-06-27T09:05:19.090Z,33.59
2018-06-27T09:07:48.326Z,33.11
2018-06-27T09:10:17.474Z,33.32
2018-06-27T09:12:46.746Z,34.53
2018-06-27T09:15:15.921Z,32.81
2018-06-27T09:17:45.302Z,33.24
2018-06-27T09:20:14.477Z,34.54
2018-06-27T09:22:43.689Z,34.12
2018-06-27T09:25:12.919Z,33.40
2018-06-27T09:27:42.131Z,32.71
2018-06-27T09:30:11.444Z,33.75
2018-06-27T09:32:40.639Z,34.63
2018-06-27T09:35:09.841Z,33.24
2018-06-27T09:37:39.221Z,34.77
2018-06-27T09:40:08.447Z,33.48
2018-06-27T09:42:37.702Z,32.41
2018-06-27T09:45:06.910Z,33.06
2018-06-27T09:47:36.397Z,33.38
2018-06-27T09:50:06.054Z,32.20
2018-06-27T09:52:35.270Z,31.93
2018-06-27T09:55:04.543Z,32.71
2018-06-27T09:57:33.710Z,33.55
2018-06-27T10:00:03.078Z,33.61
2018-06-27T10:02:32.266Z,32.73
2018-06-27T10:05:02.250Z,33.07
2018-06-27T10:07:31.687Z,34.79
2018-06-27T10:10:00.888Z,34.81
2018-06-27T10:12:30.221Z,34.55
2018-06-27T10:14:59.456Z,34.73
2018-06-27T10:17:28.817Z,33.56
2018-06-27T10:19:58.192Z,33.78
2018-06-27T10:22:27.494Z,33.69
2018-06-27T10:24:56.606Z,33.19
2018-06-27T10:27:26.289Z,34.80
2018-06-27T10:29:55.460Z,33.64
2018-06-27T10:32:24.703Z,34.18
2018-06-27T10:34:54.026Z,34.85
2018-06-27T10:37:23.166Z,33.83
2018-06-27T10:39:52.342Z,32.33
2018-06-27T10:42:21.556Z,32.35
2018-06-27T10:44:50.839Z,31.94
2018-06-27T10:47:20.057Z,32.00
2018-06-27T10:49:49.250Z,32.28
2018-06-27T10:52:18.563Z,32.28
2018-06-27T10:54:53.648Z,33.51
2018-06-27T10:57:23.683Z,33.47
2018-06-27T10:59:53.706Z,33.37
2018-06-27T11:02:23.154Z,33.24
2018-06-27T11:04:52.383Z,31.80
2018-06-27T11:07:21.563Z,31.67
2018-06-27T11:09:50.763Z,30.72
2018-06-27T11:12:19.970Z,30.30
2018-06-27T11:14:49.192Z,30.43
2018-06-27T11:17:18.630Z,31.19
2018-06-27T11:19:47.815Z,30.16
2018-06-27T11:22:17.170Z,29.90
2018-06-27T11:24:46.411Z,29.02
2018-06-27T11:27:15.640Z,29.57
2018-06-27T11:29:44.813Z,28.98
2018-06-27T11:32:14.006Z,29.34
2018-06-27T11:34:43.220Z,29.87
2018-06-27T11:37:12.442Z,29.97
2018-06-27T11:39:41.622Z,29.61
2018-06-27T11:42:10.805Z,29.52
2018-06-27T11:44:40.233Z,29.22
2018-06-27T11:47:09.459Z,29.16
2018-06-27T11:49:38.643Z,28.11
2018-06-27T11:52:08.098Z,28.14
2018-06-27T11:54:37.276Z,27.95
2018-06-27T11:57:06.482Z,28.52
2018-06-27T11:59:35.696Z,28.92
2018-06-27T12:02:04.881Z,27.78
2018-06-27T12:04:34.052Z,28.09
2018-06-27T12:07:03.244Z,29.03
2018-06-27T12:09:32.427Z,28.18
2018-06-27T12:12:01.643Z,28.77
2018-06-27T12:14:30.816Z,29.15
2018-06-27T12:17:00.127Z,29.16
2018-06-27T12:19:29.302Z,28.85
2018-06-27T12:21:58.484Z,28.55
2018-06-27T12:24:27.855Z,29.28
2018-06-27T12:26:57.084Z,28.90
2018-06-27T12:29:26.304Z,28.55
2018-06-27T12:31:55.557Z,29.31
2018-06-27T12:34:24.758Z,28.55
2018-06-27T12:36:53.946Z,28.65
2018-06-27T12:39:23.125Z,29.10
2018-06-27T12:41:52.337Z,28.64
2018-06-27T12:44:21.588Z,28.61
2018-06-27T12:46:50.940Z,29.03
2018-06-27T12:49:20.119Z,28.48
2018-06-27T12:51:49.331Z,27.81
2018-06-27T12:54:18.499Z,27.99
2018-06-27T12:56:47.726Z,28.74
2018-06-27T12:59:17.040Z,28.06
2018-06-27T13:01:46.239Z,28.74
2018-06-27T13:04:15.420Z,29.19
2018-06-27T13:06:44.650Z,29.06
2018-06-27T13:09:14.022Z,29.84
2018-06-27T13:11:43.159Z,29.17
2018-06-27T13:14:12.371Z,28.51
2018-06-27T13:16:41.594Z,28.69
2018-06-27T13:19:10.810Z,28.71
2018-06-27T13:21:40.058Z,27.97
2018-06-27T13:24:09.253Z,27.96
2018-06-27T13:26:38.425Z,28.47
2018-06-27T13:29:07.655Z,27.57
2018-06-27T13:31:37.523Z,29.04
2018-06-27T13:34:07.691Z,28.79
2018-06-27T13:36:36.963Z,28.14
2018-06-27T13:39:07.927Z,28.08
2018-06-27T13:41:37.121Z,27.95
2018-06-27T13:44:06.415Z,28.25
2018-06-27T13:46:35.615Z,27.96
2018-06-27T13:49:04.920Z,27.78
2018-06-27T13:51:35.050Z,28.37
2018-06-27T13:54:04.286Z,28.45
2018-06-27T13:56:33.500Z,27.94
2018-06-27T13:59:02.736Z,28.12
2018-06-27T14:01:31.919Z,28.62
2018-06-27T14:04:01.332Z,27.45
2018-06-27T14:06:30.578Z,27.83
2018-06-27T14:08:59.811Z,28.06
2018-06-27T14:11:29.071Z,27.81
2018-06-27T14:13:58.283Z,28.00
2018-06-27T14:16:27.544Z,27.83
2018-06-27T14:18:56.746Z,27.69
2018-06-27T14:21:26.022Z,27.56
2018-06-27T14:23:55.290Z,27.44
2018-06-27T14:26:24.548Z,27.63
2018-06-27T14:28:53.791Z,28.31
2018-06-27T14:31:23.060Z,28.06
2018-06-27T14:33:52.276Z,28.46
2018-06-27T14:36:21.501Z,28.13
2018-06-27T14:38:50.710Z,28.23
2018-06-27T14:41:19.956Z,28.12
2018-06-27T14:43:49.192Z,27.84
2018-06-27T14:46:18.575Z,27.98
2018-06-27T14:48:47.785Z,27.79
2018-06-27T14:51:17.005Z,27.62
2018-06-27T14:53:46.201Z,28.21
2018-06-27T14:56:15.459Z,28.69
2018-06-27T14:58:44.878Z,27.64
2018-06-27T15:01:14.134Z,28.14
2018-06-27T15:03:43.327Z,28.04
2018-06-27T15:06:12.621Z,28.48
2018-06-27T15:08:41.865Z,28.32
2018-06-27T15:11:11.099Z,27.95
2018-06-27T15:13:40.314Z,28.06
2018-06-27T15:16:09.502Z,27.87
2018-06-27T15:18:40.170Z,27.86
2018-06-27T15:21:09.587Z,27.89
2018-06-27T15:23:39.222Z,28.24
2018-06-27T15:26:08.906Z,28.00
2018-06-27T15:28:38.127Z,26.87
2018-06-27T15:31:07.651Z,27.79
2018-06-27T15:33:36.895Z,27.77
2018-06-27T15:36:06.138Z,28.37
2018-06-27T15:38:35.314Z,27.66
2018-06-27T15:41:05.529Z,28.09
2018-06-27T15:43:34.750Z,27.59
2018-06-27T15:46:04.018Z,27.27
2018-06-27T15:48:33.310Z,27.82
2018-06-27T15:51:02.560Z,27.03
2018-06-27T15:53:31.840Z,27.46
2018-06-27T15:56:01.073Z,27.95
2018-06-27T15:58:30.363Z,27.31
2018-06-27T16:00:59.606Z,27.50
2018-06-27T16:03:28.814Z,27.51
2018-06-27T16:05:58.038Z,27.95
2018-06-27T16:08:27.240Z,25.81
2018-06-27T16:10:56.454Z,26.92
2018-06-27T16:13:25.657Z,27.35
2018-06-27T16:15:54.894Z,27.55
2018-06-27T16:18:24.098Z,28.07
2018-06-27T16:20:53.440Z,27.85
2018-06-27T16:23:22.683Z,28.10
2018-06-27T16:25:51.896Z,27.75
2018-06-27T16:28:21.114Z,27.48
2018-06-27T16:30:50.317Z,27.97
2018-06-27T16:33:19.683Z,27.89
2018-06-27T16:35:48.924Z,27.84
2018-06-27T16:38:18.092Z,27.69
2018-06-27T16:40:47.291Z,28.08
2018-06-27T16:43:16.515Z,28.38
2018-06-27T16:45:45.712Z,27.63
2018-06-27T16:48:15.106Z,27.27
2018-06-27T16:50:44.384Z,27.71
2018-06-27T16:53:13.527Z,26.69
2018-06-27T16:55:42.761Z,26.61
2018-06-27T16:58:12.008Z,26.80
2018-06-27T17:00:41.288Z,26.71
2018-06-27T17:03:10.464Z,27.01
2018-06-27T17:05:39.706Z,26.89
2018-06-27T17:08:08.902Z,27.14
2018-06-27T17:10:38.107Z,27.39
2018-06-27T17:13:07.339Z,27.26
2018-06-27T17:15:36.588Z,27.29
2018-06-27T17:18:05.803Z,26.51
2018-06-27T17:20:34.977Z,25.54
2018-06-27T17:23:04.195Z,25.65
2018-06-27T17:25:33.442Z,26.46
2018-06-27T17:28:02.647Z,26.83
2018-06-27T17:30:32.139Z,26.35
2018-06-27T17:33:01.467Z,26.10
2018-06-27T17:35:31.153Z,26.24
2018-06-27T17:38:00.431Z,25.79
2018-06-27T17:40:29.674Z,25.86
2018-06-27T17:42:58.896Z,26.29
2018-06-27T17:45:28.113Z,26.53
2018-06-27T17:47:57.306Z,26.34
2018-06-27T17:50:26.547Z,26.50
2018-06-27T17:52:55.733Z,26.83
2018-06-27T17:55:24.983Z,27.04
2018-06-27T17:57:54.264Z,26.66
2018-06-27T18:00:23.477Z,25.62
2018-06-27T18:02:52.697Z,26.51
2018-06-27T18:05:21.916Z,26.15
2018-06-27T18:07:51.109Z,26.69
2018-06-27T18:10:20.324Z,26.81
2018-06-27T18:12:49.543Z,26.78
2018-06-27T18:15:18.766Z,26.24
2018-06-27T18:17:47.998Z,26.67
2018-06-27T18:20:17.177Z,26.62
2018-06-27T18:22:46.858Z,25.90
2018-06-27T18:25:16.070Z,26.07
2018-06-27T18:27:45.309Z,25.42
2018-06-27T18:30:14.540Z,26.04
2018-06-27T18:32:43.754Z,26.16
2018-06-27T18:35:13.000Z,26.33
2018-06-27T18:37:42.302Z,26.02
2018-06-27T18:40:11.775Z,25.71
2018-06-27T18:42:41.010Z,26.19
2018-06-27T18:45:10.239Z,26.11
2018-06-27T18:47:39.434Z,26.22
2018-06-27T18:50:08.665Z,26.06
2018-06-27T18:52:37.904Z,25.84
2018-06-27T18:55:07.265Z,25.95
2018-06-27T18:57:36.549Z,25.89
2018-06-27T19:00:07.407Z,25.59
2018-06-27T19:02:36.776Z,25.85
2018-06-27T19:05:06.276Z,25.83
2018-06-27T19:07:35.670Z,25.57
2018-06-27T19:10:05.054Z,25.18
2018-06-27T19:12:34.324Z,24.59
2018-06-27T19:15:03.615Z,24.90
2018-06-27T19:17:32.805Z,24.90
2018-06-27T19:20:01.998Z,24.83
2018-06-27T19:22:31.258Z,24.41
2018-06-27T19:25:00.453Z,24.66
2018-06-27T19:27:30.686Z,24.15
2018-06-27T19:29:59.890Z,24.42
2018-06-27T19:32:29.267Z,24.35
2018-06-27T19:34:58.603Z,23.98
2018-06-27T19:37:27.814Z,23.41
2018-06-27T19:39:57.015Z,23.57
2018-06-27T19:42:26.213Z,23.42
2018-06-27T19:44:55.391Z,23.51
2018-06-27T19:47:24.572Z,23.25
2018-06-27T19:49:53.794Z,23.00
2018-06-27T19:52:23.003Z,22.78
2018-06-27T19:54:52.250Z,23.28
2018-06-27T19:57:21.427Z,22.93
2018-06-27T19:59:50.717Z,22.65
2018-06-27T20:02:19.941Z,22.76
2018-06-27T20:04:49.189Z,22.74
2018-06-27T20:07:18.527Z,22.37
2018-06-27T20:09:47.549Z,22.06
2018-06-27T20:12:16.738Z,22.22
2018-06-27T20:14:45.918Z,22.05
2018-06-27T20:17:15.169Z,21.52
2018-06-27T20:19:44.775Z,21.58
2018-06-27T20:22:13.999Z,21.52
2018-06-27T20:24:43.137Z,21.23
2018-06-27T20:27:12.758Z,21.22
2018-06-27T20:29:42.077Z,20.55
2018-06-27T20:32:11.323Z,21.04
2018-06-27T20:34:40.589Z,20.72
2018-06-27T20:37:09.784Z,20.91
2018-06-27T20:39:38.978Z,21.03
2018-06-27T20:42:08.154Z,20.73
2018-06-27T20:44:37.327Z,20.64
2018-06-27T20:47:06.604Z,20.61
2018-06-27T20:49:35.737Z,19.81
2018-06-27T20:52:04.943Z,20.37
2018-06-27T20:54:34.147Z,20.28
2018-06-27T20:57:03.334Z,20.18
2018-06-27T20:59:32.609Z,20.17
2018-06-27T21:02:01.793Z,20.21
2018-06-27T21:04:30.970Z,19.94
2018-06-27T21:07:00.211Z,20.23
2018-06-27T21:09:29.414Z,19.95
2018-06-27T21:11:58.579Z,19.89
2018-06-27T21:14:27.790Z,19.47
2018-06-27T21:16:56.945Z,19.42
2018-06-27T21:19:26.117Z,19.83
2018-06-27T21:21:55.283Z,19.67
2018-06-27T21:24:24.505Z,19.78
2018-06-27T21:26:53.713Z,19.27
2018-06-27T21:29:22.977Z,19.36
2018-06-27T21:31:53.284Z,19.34
2018-06-27T21:34:22.453Z,19.30
2018-06-27T21:36:51.661Z,19.28
2018-06-27T21:39:20.815Z,19.27
2018-06-27T21:41:50.023Z,19.13
2018-06-27T21:44:19.189Z,18.93
2018-06-27T21:46:48.365Z,19.12
2018-06-27T21:49:17.525Z,18.93
2018-06-27T21:51:46.681Z,18.64
2018-06-27T21:54:15.859Z,19.06
2018-06-27T21:56:45.024Z,18.93
2018-06-27T21:59:14.214Z,18.82
2018-06-27T22:01:43.845Z,18.86
2018-06-27T22:04:13.021Z,18.47
2018-06-27T22:06:42.242Z,18.33
2018-06-27T22:09:12.450Z,18.22
2018-06-27T22:11:41.637Z,18.63
2018-06-27T22:14:11.446Z,18.32
2018-06-27T22:16:41.143Z,18.39
2018-06-27T22:19:10.756Z,18.35
2018-06-27T22:21:40.729Z,18.47
2018-06-27T22:24:10.592Z,18.19
2018-06-27T22:26:40.371Z,18.18
2018-06-27T22:29:10.009Z,18.38
2018-06-27T22:31:39.537Z,18.35
2018-06-27T22:34:08.785Z,18.33
2018-06-27T22:36:37.968Z,17.81
2018-06-27T22:39:08.742Z,17.94
2018-06-27T22:41:37.925Z,17.93
2018-06-27T22:44:07.186Z,17.85
2018-06-27T22:46:36.819Z,18.05
2018-06-27T22:49:06.114Z,18.05
2018-06-27T22:51:35.347Z,18.03
2018-06-27T22:54:04.526Z,18.04
2018-06-27T22:56:33.702Z,17.53
2018-06-27T22:59:03.324Z,17.76
2018-06-27T23:01:33.015Z,17.99
2018-06-27T23:04:02.800Z,17.72
2018-06-27T23:06:32.713Z,17.47
2018-06-27T23:09:02.302Z,17.72
2018-06-27T23:11:32.355Z,17.52
2018-06-27T23:14:01.597Z,17.58
2018-06-27T23:16:30.803Z,17.41
2018-06-27T23:18:59.953Z,17.59
2018-06-27T23:21:29.813Z,17.36
2018-06-27T23:23:59.788Z,17.74
2018-06-27T23:26:29.792Z,17.54
2018-06-27T23:28:59.676Z,17.38
2018-06-27T23:31:29.705Z,17.37
2018-06-27T23:34:00.859Z,17.08
2018-06-27T23:36:30.886Z,17.32
2018-06-27T23:39:00.853Z,17.31
2018-06-27T23:41:30.146Z,17.30
2018-06-27T23:43:59.310Z,17.12
2018-06-27T23:46:28.522Z,16.86
2018-06-27T23:48:57.667Z,17.01
2018-06-27T23:51:26.831Z,16.93
2018-06-27T23:53:55.992Z,16.66
2018-06-27T23:56:25.308Z,16.89
2018-06-27T23:58:54.566Z,16.85
